Silver Bergen — LAHO6 — position and weather

sailwx.info

Track history (hours):
 
Tides and Currents Weather Stations Pressure Air Temp Water Temp Dewpoint Dewpoint Depression Visibility Wind Speed Wind Dir Waves Ship Positions

Silver Bergen

Last reported at 2015-Mar-05 21:33 UTC. Time now 2015-Mar-06 02:49 UTC.
Position N 57°51' E 010°32'.

Length 97 m; draft 4.8 m.

Type: Cargo ship. MMSI: 257951000.

Date/timePositionNaut miles runAvg speedWind from/ knotsBaromVisibWave heightAir tempDewpointWater temp
2015-Mar-05 21:33N 57°51' E 010°32'1312.6
2015-Mar-05 20:33N 57°46' E 010°53'1514.9
2015-Mar-05 19:33N 57°35' E 011°13'1414.4
2015-Mar-05 18:33N 57°24' E 011°29'1514.6
2015-Mar-05 17:33N 57°10' E 011°38'1414.5
2015-Mar-05 16:33N 56°57' E 011°50'1414.4
2015-Mar-05 15:33N 56°44' E 012°02'1514.3
2015-Mar-05 14:29N 56°30' E 012°12'1414.7
2015-Mar-05 13:33N 56°18' E 012°22'1414.0
2015-Mar-05 12:33N 56°06' E 012°35'1313.2
2015-Mar-05 11:33N 55°53' E 012°44'1211.9
2015-Mar-05 10:33N 55°41' E 012°41'10 9.7
2015-Mar-05 09:34N 55°32' E 012°43'1413.6
2015-Mar-05 08:33N 55°18' E 012°43'1513.4
2015-Mar-05 07:25N 55°15' E 013°09'1213.5
2015-Mar-05 06:32N 55°15' E 013°30'1413.8
2015-Mar-05 05:33N 55°14' E 013°54'1313.5
2015-Mar-05 04:33N 55°15' E 014°17'1414.2
2015-Mar-05 03:33N 55°26' E 014°33'1413.7
2015-Mar-05 02:33N 55°32' E 014°55'1614.1
2015-Mar-05 01:26N 55°39' E 015°20'35013.5
2015-Mar-03 23:27N 59°38' E 023°20'1314.1
2015-Mar-03 22:33N 59°41' E 023°44'8614.3
2015-Mar-03 16:33N 60°01' E 026°30'  
2015-Feb-28 04:33N 59°53' E 030°11'110 2.2
2015-Feb-26 02:33N 59°58' E 026°32'6314.7
2015-Feb-25 22:17N 59°44' E 024°30'38014.1
2015-Feb-24 19:18N 55°39' E 015°27'1114.5
2015-Feb-24 18:32N 55°34' E 015°10'1414.5
2015-Feb-24 17:33N 55°27' E 014°48'1414.2
2015-Feb-24 16:33N 55°18' E 014°29'1313.1
2015-Feb-24 15:33N 55°11' E 014°09'1414.0
2015-Feb-24 14:33N 55°11' E 013°44'1814.0
2015-Feb-24 13:17N 55°13' E 013°13'1214.1
2015-Feb-24 12:26N 55°15' E 012°53'1011.7
2015-Feb-24 11:34N 55°21' E 012°39'1313.0
2015-Feb-24 10:34N 55°34' E 012°42'1313.1
2015-Feb-24 09:34N 55°47' E 012°42'1313.2
2015-Feb-24 08:33N 56°00' E 012°38'1312.9
2015-Feb-24 07:33N 56°10' E 012°23'2713.0
2015-Feb-24 05:29N 56°33' E 011°57'1313.5
2015-Feb-24 04:30N 56°46' E 011°51'1513.1
2015-Feb-24 03:23N 56°60' E 011°42'1213.0
2015-Feb-24 02:25N 57°11' E 011°35'1213.8
2015-Feb-24 01:33N 57°23' E 011°27'1313.0
2015-Feb-24 00:33N 57°33' E 011°13'1313.5
2015-Feb-23 23:33N 57°42' E 010°54'  
Track history (hours):
 
Tides and Currents Weather Stations Pressure Air Temp Water Temp Dewpoint Dewpoint Depression Visibility Wind Speed Wind Dir Waves Ship Positions

Silver Bergen

Last reported at 2015-Mar-05 21:33 UTC. Time now 2015-Mar-06 02:49 UTC.
Position N 57°51' E 010°32'.

Length 97 m; draft 4.8 m.

Type: Cargo ship. MMSI: 257951000.

Date/timePositionNaut miles runAvg speedWind from/ knotsBaromVisibWave heightAir tempDewpointWater temp
2015-Mar-05 21:33N 57°51' E 010°32'1312.6
2015-Mar-05 20:33N 57°46' E 010°53'1514.9
2015-Mar-05 19:33N 57°35' E 011°13'1414.4
2015-Mar-05 18:33N 57°24' E 011°29'1514.6
2015-Mar-05 17:33N 57°10' E 011°38'1414.5
2015-Mar-05 16:33N 56°57' E 011°50'1414.4
2015-Mar-05 15:33N 56°44' E 012°02'1514.3
2015-Mar-05 14:29N 56°30' E 012°12'1414.7
2015-Mar-05 13:33N 56°18' E 012°22'1414.0
2015-Mar-05 12:33N 56°06' E 012°35'1313.2
2015-Mar-05 11:33N 55°53' E 012°44'1211.9
2015-Mar-05 10:33N 55°41' E 012°41'10 9.7
2015-Mar-05 09:34N 55°32' E 012°43'1413.6
2015-Mar-05 08:33N 55°18' E 012°43'1513.4
2015-Mar-05 07:25N 55°15' E 013°09'1213.5
2015-Mar-05 06:32N 55°15' E 013°30'1413.8
2015-Mar-05 05:33N 55°14' E 013°54'1313.5
2015-Mar-05 04:33N 55°15' E 014°17'1414.2
2015-Mar-05 03:33N 55°26' E 014°33'1413.7
2015-Mar-05 02:33N 55°32' E 014°55'1614.1
2015-Mar-05 01:26N 55°39' E 015°20'35013.5
2015-Mar-03 23:27N 59°38' E 023°20'1314.1
2015-Mar-03 22:33N 59°41' E 023°44'8614.3
2015-Mar-03 16:33N 60°01' E 026°30'  
2015-Feb-28 04:33N 59°53' E 030°11'110 2.2
2015-Feb-26 02:33N 59°58' E 026°32'6314.7
2015-Feb-25 22:17N 59°44' E 024°30'38014.1
2015-Feb-24 19:18N 55°39' E 015°27'1114.5
2015-Feb-24 18:32N 55°34' E 015°10'1414.5
2015-Feb-24 17:33N 55°27' E 014°48'1414.2
2015-Feb-24 16:33N 55°18' E 014°29'1313.1
2015-Feb-24 15:33N 55°11' E 014°09'1414.0
2015-Feb-24 14:33N 55°11' E 013°44'1814.0
2015-Feb-24 13:17N 55°13' E 013°13'1214.1
2015-Feb-24 12:26N 55°15' E 012°53'1011.7
2015-Feb-24 11:34N 55°21' E 012°39'1313.0
2015-Feb-24 10:34N 55°34' E 012°42'1313.1
2015-Feb-24 09:34N 55°47' E 012°42'1313.2
2015-Feb-24 08:33N 56°00' E 012°38'1312.9
2015-Feb-24 07:33N 56°10' E 012°23'2713.0
2015-Feb-24 05:29N 56°33' E 011°57'1313.5
2015-Feb-24 04:30N 56°46' E 011°51'1513.1
2015-Feb-24 03:23N 56°60' E 011°42'1213.0
2015-Feb-24 02:25N 57°11' E 011°35'1213.8
2015-Feb-24 01:33N 57°23' E 011°27'1313.0
2015-Feb-24 00:33N 57°33' E 011°13'1313.5
2015-Feb-23 23:33N 57°42' E 010°54'  

Dump ship's entire track history